Grand Rapids, Minnesota
Current Conditions -  °F | °C
As of 5:15 PM on Tuesday 27 Jan 2015 (Local Time) from KGPZ Reporting Station
Overcast Overcast  
Wind Chill: 23°   Ceiling: 10000
Heat Index: 30°   Visibility: 10mi
Dew Point: 25°   Wind: 8mph
Humidity: 80%   Direction: 160°SSE
Pressure: 30.06"   Gusts: NA
Location:  47.24°N, 93.53°W
Report Text: KGPZ 272315Z AUTO 16007KT 10SM OVC100 M01/M04 A3006 RMK AO1
Loading
Personal Weather Stations






























Interactive Weather Map New forecast layout! Learn more

10-Day Weather Forecast

Advertisements
Track Severe Weather on mobile